Time;durP1;ratioP1;P1;durP2;ratioP2;P2;SDS_P1;SDS_P2;PMS_P1;PMS_P2;Temp;Humidity;BMP_temperature;BMP_pressure;BME280_temperature;BME280_humidity;BME280_pressure;Samples;Min_cycle;Max_cycle;Signal;HPM_P1;HPM_P2
2023/06/10 00:01:01;;;;;;;10.50;9.80;;;16.00;99.90;;;16.95;76.30;97531.22;5193115;28;20229;-65
2023/06/10 00:03:34;;;;;;;11.32;10.43;;;16.00;99.90;;;16.98;76.83;97533.88;5196069;28;20737;-65
2023/06/10 00:06:07;;;;;;;10.30;9.60;;;16.00;99.90;;;16.95;76.87;97535.53;5195390;28;20717;-65
2023/06/10 00:08:42;;;;;;;10.68;9.93;;;16.00;99.90;;;16.86;77.54;97538.72;5195385;28;20233;-65
2023/06/10 00:11:15;;;;;;;10.90;10.00;;;15.90;99.90;;;16.81;76.94;97535.16;5200076;28;20252;-65
2023/06/10 00:13:48;;;;;;;11.07;10.10;;;15.80;99.90;;;16.75;77.62;97540.13;5198298;28;20706;-65
2023/06/10 00:16:21;;;;;;;10.07;9.35;;;15.70;99.90;;;16.73;77.82;97547.78;5195791;28;20226;-64
2023/06/10 00:19:00;;;;;;;10.40;9.70;;;15.70;99.90;;;16.73;78.37;97539.19;5196270;28;20226;-67
2023/06/10 00:21:37;;;;;;;10.68;9.77;;;15.80;99.90;;;16.72;78.25;97542.59;5196163;28;20225;-65
2023/06/10 00:24:12;;;;;;;9.95;9.25;;;15.70;99.90;;;16.64;79.10;97547.53;5198503;28;20217;-65
2023/06/10 00:26:46;;;;;;;10.55;9.75;;;15.60;99.90;;;16.60;79.49;97548.31;5196024;28;20257;-65
2023/06/10 00:29:21;;;;;;;10.63;9.82;;;15.60;99.90;;;16.56;79.85;97547.31;5199596;28;20225;-65
2023/06/10 00:31:57;;;;;;;10.45;9.48;;;15.50;99.90;;;16.58;79.44;97537.06;5198665;28;20680;-65
2023/06/10 00:34:30;;;;;;;10.40;9.60;;;15.60;99.90;;;16.62;79.63;97542.31;5199063;28;20629;-65
2023/06/10 00:37:03;;;;;;;11.20;10.27;;;15.60;99.90;;;16.54;79.72;97541.25;5195873;28;20300;-65
2023/06/10 00:39:38;;;;;;;10.70;9.90;;;15.50;99.90;;;16.48;79.47;97533.31;5196214;28;20511;-65
2023/06/10 00:42:11;;;;;;;11.50;10.60;;;15.40;99.90;;;16.43;80.08;97532.34;5200775;28;20708;-65
2023/06/10 00:44:44;;;;;;;10.95;10.05;;;15.40;99.90;;;16.37;80.36;97532.16;5194300;28;20257;-65
2023/06/10 00:47:18;;;;;;;11.25;10.45;;;15.30;99.90;;;16.34;80.43;97537.22;5197980;28;20632;-65
2023/06/10 00:49:51;;;;;;;11.02;10.23;;;15.40;99.90;;;16.29;80.65;97529.34;5196478;28;20225;-65
2023/06/10 00:52:29;;;;;;;11.35;10.45;;;15.30;99.90;;;16.26;81.37;97528.41;5196921;28;20225;-66
2023/06/10 00:55:03;;;;;;;10.43;9.73;;;15.20;99.90;;;16.21;81.32;97528.25;5195043;28;20226;-65
2023/06/10 00:57:38;;;;;;;11.25;10.45;;;15.20;99.90;;;16.12;81.83;97528.84;5191103;28;20373;-65
2023/06/10 01:00:13;;;;;;;10.82;9.98;;;15.10;99.90;;;16.12;81.65;97531.44;5195499;28;20236;-65
2023/06/10 01:02:46;;;;;;;11.85;10.95;;;15.10;99.90;;;16.11;81.49;97527.13;5196961;28;20228;-66
2023/06/10 01:05:20;;;;;;;11.43;10.57;;;15.10;99.90;;;16.06;82.27;97535.53;5198848;28;20249;-65
2023/06/10 01:08:03;;;;;;;12.10;11.20;;;15.00;99.90;;;16.06;81.80;97539.00;5196883;28;20284;-65
2023/06/10 01:10:43;;;;;;;11.73;10.80;;;15.00;99.90;;;16.05;81.67;97534.63;5196468;28;20587;-65
2023/06/10 01:13:18;;;;;;;11.48;10.68;;;15.00;99.90;;;16.06;82.11;97543.28;5200522;28;20663;-65
2023/06/10 01:15:52;;;;;;;12.77;11.77;;;15.00;99.90;;;15.94;82.55;97534.34;5198438;28;20620;-65
2023/06/10 01:18:32;;;;;;;13.07;12.18;;;15.00;99.90;;;15.72;83.08;97539.66;5194468;28;20244;-65
2023/06/10 01:21:07;;;;;;;12.82;11.82;;;14.80;99.90;;;15.69;83.48;97535.28;5193709;28;20361;-66
2023/06/10 01:23:41;;;;;;;12.90;11.90;;;14.80;99.90;;;15.79;82.95;97536.41;5194849;28;20249;-65
2023/06/10 01:26:16;;;;;;;12.57;11.68;;;14.90;99.90;;;15.83;82.33;97543.44;5194540;28;20243;-65
2023/06/10 01:28:54;;;;;;;13.52;12.48;;;14.90;99.90;;;15.70;83.17;97542.16;5198053;28;20229;-65
2023/06/10 01:31:38;;;;;;;12.77;11.77;;;14.80;99.90;;;15.69;83.06;97540.41;5197932;28;20275;-65
2023/06/10 01:34:15;;;;;;;12.15;11.20;;;14.80;99.90;;;15.71;82.96;97527.59;5191583;28;20221;-65
2023/06/10 01:36:50;;;;;;;11.77;10.98;;;14.70;99.90;;;15.70;83.53;97531.84;5199466;28;20311;-65
2023/06/10 01:39:26;;;;;;;11.95;10.98;;;14.80;99.90;;;15.70;83.23;97537.00;5197499;28;20693;-65
2023/06/10 01:41:59;;;;;;;11.32;10.60;;;14.80;99.90;;;15.72;83.53;97537.94;5197097;28;20652;-65
2023/06/10 01:44:33;;;;;;;11.77;10.93;;;14.80;99.90;;;15.72;83.83;97537.94;5196995;28;20248;-65
2023/06/10 01:47:06;;;;;;;12.73;11.73;;;14.80;99.90;;;15.68;84.06;97543.84;5197696;28;20229;-65
2023/06/10 01:49:40;;;;;;;12.25;11.25;;;14.80;99.90;;;15.71;83.79;97532.75;5198945;28;20855;-65
2023/06/10 01:52:13;;;;;;;11.88;10.98;;;14.80;99.90;;;15.65;83.61;97533.41;5192200;28;20275;-65
2023/06/10 01:54:48;;;;;;;12.23;11.35;;;14.70;99.90;;;15.67;84.06;97536.88;5193946;28;20731;-65
2023/06/10 01:57:21;;;;;;;12.05;11.20;;;14.80;99.90;;;15.65;84.03;97541.13;5198190;28;20218;-65
2023/06/10 01:59:54;;;;;;;11.88;10.98;;;14.80;99.90;;;15.64;84.27;97536.78;5198718;28;20295;-65
2023/06/10 02:02:27;;;;;;;12.13;11.23;;;14.80;99.90;;;15.59;83.90;97537.47;5191580;28;20308;-65
2023/06/10 02:05:00;;;;;;;12.43;11.43;;;14.70;99.90;;;15.65;83.88;97535.06;5195112;28;20253;-65
2023/06/10 02:07:33;;;;;;;12.18;11.18;;;14.70;99.90;;;15.62;84.19;97537.56;5196192;28;20704;-65
2023/06/10 02:10:09;;;;;;;12.23;11.32;;;14.70;99.90;;;15.65;83.88;97542.81;5193959;28;20697;-65
2023/06/10 02:12:42;;;;;;;11.57;10.68;;;14.70;99.90;;;15.58;84.48;97541.75;5196658;28;20276;-65
2023/06/10 02:15:16;;;;;;;11.40;10.60;;;14.70;99.90;;;15.61;84.47;97535.81;5195806;28;20306;-65
2023/06/10 02:17:49;;;;;;;11.77;10.98;;;14.60;99.90;;;15.61;84.55;97540.97;5198113;28;20217;-65
2023/06/10 02:20:22;;;;;;;11.98;11.07;;;14.70;99.90;;;15.60;84.77;97550.41;5197059;28;20419;-65
2023/06/10 02:22:55;;;;;;;11.98;11.10;;;14.70;99.90;;;15.58;84.75;97549.47;5195023;28;20633;-66
2023/06/10 02:25:30;;;;;;;12.07;11.07;;;14.70;99.90;;;15.57;84.91;97554.56;5194383;28;20316;-64
2023/06/10 02:28:04;;;;;;;11.23;10.32;;;14.70;99.90;;;15.51;84.89;97544.97;5192840;28;20233;-66
2023/06/10 02:30:40;;;;;;;11.07;10.18;;;14.60;99.90;;;15.45;85.28;97549.88;5193203;28;20241;-65
2023/06/10 02:33:13;;;;;;;11.40;10.50;;;14.50;99.90;;;15.46;85.28;97544.81;5198315;28;20225;-66
2023/06/10 02:35:46;;;;;;;12.32;11.30;;;14.50;99.90;;;15.44;85.24;97543.00;5195504;28;20287;-65
2023/06/10 02:38:19;;;;;;;10.68;9.98;;;14.50;99.90;;;15.40;85.11;97542.03;5199414;28;20276;-66
2023/06/10 02:40:54;;;;;;;10.98;10.23;;;14.50;99.90;;;15.32;86.14;97546.03;5192962;28;20309;-65
2023/06/10 02:43:27;;;;;;;11.48;10.57;;;14.40;99.90;;;15.35;85.92;97553.00;5190829;28;20260;-65
2023/06/10 02:46:00;;;;;;;11.35;10.45;;;14.40;99.90;;;15.35;85.68;97558.16;5193993;28;20713;-64
2023/06/10 02:48:41;;;;;;;11.18;10.38;;;14.40;99.90;;;15.32;85.98;97564.06;5197228;28;20232;-64
2023/06/10 02:51:14;;;;;;;11.25;10.45;;;14.40;99.90;;;15.35;86.17;97565.88;5192347;28;20237;-65
2023/06/10 02:53:47;;;;;;;11.52;10.63;;;14.40;99.90;;;15.30;86.19;97563.13;5196202;28;20229;-64
2023/06/10 02:56:22;;;;;;;11.10;10.30;;;14.40;99.90;;;15.18;85.93;97555.88;5191964;28;20291;-65
2023/06/10 02:58:55;;;;;;;10.88;10.02;;;14.30;99.90;;;15.21;86.33;97561.13;5197367;28;20692;-66
2023/06/10 03:01:29;;;;;;;11.38;10.48;;;14.30;99.90;;;15.22;85.43;97567.16;5192514;28;20706;-66
2023/06/10 03:04:02;;;;;;;11.13;10.32;;;14.30;99.90;;;15.18;86.87;97563.59;5192599;28;20232;-66
2023/06/10 03:06:36;;;;;;;10.50;9.70;;;14.30;99.90;;;15.18;86.64;97565.31;5193089;28;20283;-66
2023/06/10 03:09:09;;;;;;;11.15;10.35;;;14.30;99.90;;;15.15;86.84;97563.50;5191320;28;20229;-66
2023/06/10 03:11:43;;;;;;;11.10;10.30;;;14.20;99.90;;;15.16;86.69;97559.22;5195517;28;20709;-65
2023/06/10 03:14:16;;;;;;;10.88;10.02;;;14.20;99.90;;;14.96;87.25;97563.69;5197873;28;20744;-65
2023/06/10 03:16:49;;;;;;;10.52;9.70;;;14.10;99.90;;;15.00;87.39;97570.69;5192960;28;20644;-65
2023/06/10 03:19:23;;;;;;;11.32;10.43;;;14.10;99.90;;;15.02;88.25;97571.59;5197547;28;20319;-66
2023/06/10 03:22:09;;;;;;;11.38;10.45;;;14.10;99.90;;;15.03;87.38;97568.22;5193775;28;20709;-65
2023/06/10 03:24:43;;;;;;;11.32;10.43;;;14.10;99.90;;;15.04;87.63;97576.00;5193287;28;20222;-66
2023/06/10 03:27:18;;;;;;;10.90;10.00;;;14.20;99.90;;;15.10;87.10;97572.75;5189437;28;20276;-66
2023/06/10 03:29:51;;;;;;;10.57;9.77;;;14.10;99.90;;;14.98;87.66;97580.94;5196260;28;20297;-65
2023/06/10 03:32:24;;;;;;;10.32;9.45;;;14.00;99.90;;;14.88;87.55;97578.88;5196070;28;20233;-65
2023/06/10 03:34:57;;;;;;;10.75;9.85;;;14.00;99.90;;;14.99;87.24;97571.50;5195635;28;20225;-65
2023/06/10 03:37:30;;;;;;;10.20;9.50;;;14.10;99.90;;;14.97;88.19;97573.16;5195297;28;20662;-66
2023/06/10 03:40:05;;;;;;;10.52;9.73;;;14.10;99.90;;;15.01;88.29;97572.44;5197657;28;20272;-65
2023/06/10 03:42:39;;;;;;;10.10;9.40;;;14.20;99.90;;;15.11;87.60;97582.25;5192659;28;20250;-65
2023/06/10 03:45:12;;;;;;;10.38;9.57;;;14.20;99.90;;;15.13;88.04;97580.59;5195512;28;20224;-66
2023/06/10 03:47:47;;;;;;;9.75;9.05;;;14.30;99.90;;;15.16;88.06;97575.53;5190314;28;20229;-65
2023/06/10 03:50:23;;;;;;;9.82;9.02;;;14.30;99.90;;;15.23;88.23;97579.22;5197173;28;20238;-65
2023/06/10 03:52:56;;;;;;;9.98;9.07;;;14.40;99.90;;;15.26;87.64;97580.19;5189966;28;20218;-65
2023/06/10 03:55:30;;;;;;;10.57;9.75;;;14.40;99.90;;;15.29;87.64;97587.16;5197064;28;20261;-65
2023/06/10 03:58:05;;;;;;;10.00;9.05;;;14.50;99.90;;;15.33;87.71;97587.28;5192423;28;20237;-65
2023/06/10 04:00:41;;;;;;;9.43;8.73;;;14.50;99.90;;;15.44;87.05;97594.50;5189740;28;20221;-65
2023/06/10 04:03:15;;;;;;;9.63;8.93;;;14.60;99.90;;;15.45;87.13;97591.09;5189880;28;20709;-65
2023/06/10 04:05:49;;;;;;;9.88;9.18;;;14.60;99.90;;;15.52;86.77;97585.34;5195101;28;20232;-65
2023/06/10 04:08:23;;;;;;;9.07;8.38;;;14.60;99.90;;;15.55;86.21;97590.59;5196448;28;20541;-64
2023/06/10 04:10:57;;;;;;;10.48;9.68;;;14.60;99.90;;;15.56;85.93;97594.91;5193576;28;20226;-65
2023/06/10 04:13:31;;;;;;;9.85;9.15;;;14.70;99.90;;;15.61;86.37;97598.53;5196934;28;20703;-65
2023/06/10 04:16:05;;;;;;;10.63;9.73;;;14.70;99.90;;;15.67;84.97;97588.41;5197222;28;20225;-65
2023/06/10 04:18:39;;;;;;;10.73;9.93;;;14.70;99.90;;;15.66;85.15;97589.25;5194671;28;20251;-66
2023/06/10 04:21:12;;;;;;;9.85;9.05;;;14.70;99.90;;;15.69;85.22;97593.66;5198664;28;20257;-65
2023/06/10 04:23:45;;;;;;;10.13;9.32;;;14.70;99.90;;;15.75;84.74;97592.16;5199478;28;20280;-65
2023/06/10 04:26:18;;;;;;;10.27;9.57;;;14.80;99.90;;;15.76;84.33;97598.19;5197929;28;20225;-65
2023/06/10 04:28:52;;;;;;;10.65;9.88;;;14.80;99.90;;;15.75;84.47;97602.47;5199995;28;20304;-65
2023/06/10 04:31:26;;;;;;;10.35;9.60;;;14.80;99.90;;;15.74;85.33;97597.28;5197013;28;20221;-65
2023/06/10 04:34:00;;;;;;;9.48;8.77;;;14.90;99.90;;;15.80;85.35;97599.19;5196469;28;20221;-66
2023/06/10 04:36:33;;;;;;;10.70;9.60;;;14.90;99.90;;;15.91;84.74;97603.84;5195848;28;20249;-67
2023/06/10 04:39:06;;;;;;;15.60;14.18;;;15.00;99.90;;;15.97;84.35;97606.63;5197839;28;20213;-65
2023/06/10 04:41:40;;;;;;;27.48;24.85;;;15.10;99.90;;;16.16;84.20;97610.63;5197262;28;20225;-65
2023/06/10 04:44:14;;;;;;;18.33;16.63;;;15.20;99.90;;;16.64;83.01;97606.91;5196024;28;20283;-65
2023/06/10 04:46:47;;;;;;;13.30;12.20;;;15.70;99.90;;;17.32;80.01;97601.94;5194005;28;20588;-66
2023/06/10 04:49:20;;;;;;;13.15;12.05;;;16.30;99.90;;;18.06;77.05;97608.97;5195042;28;20221;-65
2023/06/10 04:51:54;;;;;;;10.98;10.07;;;16.90;99.90;;;18.65;72.73;97602.53;5194959;28;20230;-65
2023/06/10 04:54:27;;;;;;;10.38;9.48;;;17.30;99.90;;;19.15;70.80;97612.22;5198772;28;20237;-65
2023/06/10 04:57:00;;;;;;;9.68;8.88;;;17.70;99.90;;;19.85;67.38;97607.41;5196621;28;20303;-66
2023/06/10 04:59:37;;;;;;;9.05;8.25;;;18.10;99.90;;;20.43;64.64;97604.84;5199802;28;20244;-65
2023/06/10 05:02:10;;;;;;;8.68;7.97;;;18.50;99.90;;;20.92;61.68;97605.53;5187626;28;20228;-66
2023/06/10 05:04:43;;;;;;;9.48;8.77;;;18.70;99.90;;;21.35;59.49;97606.00;5190531;28;20238;-65
2023/06/10 05:07:17;;;;;;;10.00;9.30;;;19.00;99.90;;;21.66;58.18;97603.72;5185096;28;20225;-65
2023/06/10 05:09:50;;;;;;;9.10;8.40;;;19.30;99.90;;;22.04;56.92;97604.94;5184547;28;20879;-65
2023/06/10 05:12:23;;;;;;;9.55;8.85;;;19.60;99.90;;;22.41;55.09;97606.94;5187105;28;20756;-65
2023/06/10 05:14:57;;;;;;;9.98;9.18;;;20.10;99.90;;;22.76;53.78;97607.13;5186112;28;20611;-65
2023/06/10 05:17:30;;;;;;;9.02;8.43;;;20.40;99.90;;;23.07;53.15;97612.50;5185992;28;20729;-65
2023/06/10 05:20:06;;;;;;;8.82;8.20;;;20.70;99.90;;;23.35;51.92;97603.91;5189593;28;20225;-65
2023/06/10 05:22:39;;;;;;;9.07;8.38;;;20.90;99.90;;;23.46;51.25;97610.88;5184789;28;20244;-65
2023/06/10 05:25:12;;;;;;;8.68;7.97;;;21.10;99.90;;;23.69;51.11;97616.97;5193248;28;20577;-66
2023/06/10 05:27:45;;;;;;;8.20;7.60;;;21.30;99.90;;;23.95;50.50;97613.53;5190223;28;20641;-65
2023/06/10 05:30:19;;;;;;;7.90;7.35;;;21.50;99.70;;;24.34;49.39;97611.78;5193963;28;20699;-65
2023/06/10 05:32:53;;;;;;;7.75;7.15;;;21.90;98.90;;;24.71;48.66;97605.63;5194584;28;20229;-65
2023/06/10 05:35:26;;;;;;;7.63;7.03;;;22.30;97.70;;;24.95;47.84;97614.25;5193835;28;20229;-65
2023/06/10 05:37:59;;;;;;;7.82;7.22;;;22.30;97.60;;;25.24;46.77;97610.66;5198393;28;20222;-65
2023/06/10 05:40:35;;;;;;;7.65;7.13;;;22.60;96.90;;;25.45;46.43;97610.56;5193591;28;20221;-64
2023/06/10 05:43:09;;;;;;;7.60;6.90;;;22.90;96.40;;;25.55;45.97;97607.00;5193682;28;20229;-66
2023/06/10 05:45:43;;;;;;;6.82;6.32;;;22.90;96.00;;;25.78;45.91;97611.19;5195935;28;20229;-66
2023/06/10 05:48:17;;;;;;;7.45;6.95;;;23.30;95.40;;;25.92;45.53;97606.75;5185993;28;20617;-65
2023/06/10 05:50:50;;;;;;;7.35;6.78;;;23.30;95.40;;;26.11;45.20;97611.84;5186675;28;20292;-64
2023/06/10 05:53:23;;;;;;;7.35;6.85;;;23.60;95.00;;;26.20;44.85;97611.75;5186568;28;20653;-65
2023/06/10 05:55:58;;;;;;;7.57;6.97;;;23.50;95.00;;;26.33;44.55;97609.91;5190351;28;20226;-65
2023/06/10 05:58:31;;;;;;;7.32;6.82;;;23.70;94.80;;;26.59;44.66;97614.91;5185248;28;20291;-65
2023/06/10 06:01:05;;;;;;;6.85;6.35;;;23.80;95.10;;;27.10;43.12;97612.53;5190973;28;20295;-66
2023/06/10 06:03:39;;;;;;;6.72;6.15;;;24.00;94.20;;;26.98;43.55;97612.72;5193025;28;20239;-65
2023/06/10 06:06:12;;;;;;;6.55;6.15;;;23.90;94.50;;;27.28;43.33;97614.97;5189729;28;20222;-65
2023/06/10 06:08:45;;;;;;;7.00;6.50;;;24.20;94.20;;;27.60;42.16;97617.16;5189495;28;20561;-67
2023/06/10 06:11:18;;;;;;;6.82;6.32;;;24.30;93.50;;;27.69;41.78;97623.16;5193777;28;20225;-65
2023/06/10 06:13:51;;;;;;;6.55;6.07;;;24.40;93.50;;;27.78;41.65;97618.63;5190706;28;20225;-65
2023/06/10 06:16:27;;;;;;;6.97;6.47;;;24.50;93.20;;;27.74;41.28;97619.56;5192871;28;20267;-66
2023/06/10 06:19:00;;;;;;;6.28;5.85;;;24.50;93.20;;;28.05;41.91;97622.63;5192241;28;20225;-65
2023/06/10 06:21:33;;;;;;;6.43;6.03;;;24.70;93.40;;;28.44;40.99;97621.97;5187872;28;20638;-68
2023/06/10 06:24:07;;;;;;;7.13;6.63;;;25.20;92.60;;;28.52;39.66;97620.94;5181686;28;20229;-66
2023/06/10 06:26:41;;;;;;;6.72;6.22;;;25.40;91.80;;;28.51;40.51;97608.69;5187081;28;20267;-64
2023/06/10 06:29:14;;;;;;;6.20;5.70;;;25.30;92.40;;;28.95;39.98;97616.59;5189631;28;20221;-65
2023/06/10 06:31:48;;;;;;;5.97;5.55;;;25.60;91.90;;;29.22;39.25;97614.31;5187901;28;20298;-66
2023/06/10 06:34:21;;;;;;;6.70;6.20;;;25.70;91.30;;;29.28;39.16;97614.22;5191583;28;20220;-65
2023/06/10 06:36:54;;;;;;;6.18;5.78;;;25.70;91.40;;;29.35;38.65;97616.66;5189544;28;20225;-65
2023/06/10 06:39:27;;;;;;;6.00;5.60;;;26.10;91.40;;;29.56;38.77;97622.34;5193322;28;20229;-65
2023/06/10 06:42:00;;;;;;;6.07;5.68;;;26.40;90.60;;;29.78;38.23;97625.41;5186023;28;20691;-65
2023/06/10 06:44:33;;;;;;;6.57;6.07;;;26.40;90.60;;;30.05;37.50;97616.84;5190889;28;20232;-65
2023/06/10 06:47:08;;;;;;;6.10;5.65;;;26.70;90.20;;;30.01;37.07;97612.53;5191003;28;20225;-65
2023/06/10 06:49:41;;;;;;;5.90;5.50;;;26.60;90.00;;;30.27;36.77;97617.16;5193179;28;20685;-65
2023/06/10 06:52:15;;;;;;;6.05;5.65;;;26.80;89.20;;;30.30;37.00;97618.84;5193999;28;20245;-66
2023/06/10 06:54:49;;;;;;;5.68;5.28;;;27.10;88.50;;;30.64;36.30;97618.84;5192494;28;20688;-65
2023/06/10 06:57:23;;;;;;;6.00;5.50;;;27.40;88.00;;;30.72;36.73;97614.22;5193131;28;20619;-66
2023/06/10 06:59:56;;;;;;;5.85;5.45;;;27.50;87.90;;;30.88;36.13;97614.69;5195511;28;20232;-67
2023/06/10 07:02:31;;;;;;;5.68;5.28;;;27.80;86.80;;;31.14;35.82;97613.09;5193450;28;20241;-67
2023/06/10 07:05:06;;;;;;;5.95;5.55;;;27.90;86.20;;;31.15;35.80;97614.81;5192899;28;20225;-66
2023/06/10 07:07:39;;;;;;;5.60;5.20;;;28.00;85.80;;;30.94;36.48;97614.53;5194007;28;20232;-67
2023/06/10 07:10:13;;;;;;;5.32;5.00;;;28.10;86.00;;;31.29;35.71;97623.19;5191590;28;20228;-67
2023/06/10 07:12:46;;;;;;;5.55;5.15;;;28.80;85.00;;;31.76;33.95;97622.66;5191007;28;20221;-67
2023/06/10 07:15:19;;;;;;;5.07;4.68;;;28.90;82.30;;;31.72;34.51;97619.25;5194550;28;20275;-67
2023/06/10 07:17:53;;;;;;;5.38;5.07;;;28.80;83.10;;;31.97;34.40;97622.03;5192491;28;20763;-66
2023/06/10 07:20:27;;;;;;;5.65;5.35;;;29.10;81.70;;;31.87;34.14;97626.69;5195800;28;20252;-67
2023/06/10 07:23:00;;;;;;;4.90;4.60;;;29.30;81.00;;;31.94;33.99;97621.25;5193909;28;20221;-66
2023/06/10 07:25:33;;;;;;;5.60;5.20;;;29.40;81.20;;;32.31;32.93;97627.06;5190324;28;20643;-67
2023/06/10 07:28:06;;;;;;;5.30;4.90;;;29.70;79.70;;;32.63;32.60;97621.59;5194227;28;20221;-66
2023/06/10 07:30:39;;;;;;;5.60;5.20;;;30.10;78.70;;;32.39;33.65;97617.97;5196204;28;20225;-66
2023/06/10 07:33:14;;;;;;;5.22;4.82;;;29.80;79.60;;;32.31;32.92;97619.13;5196783;28;20217;-65
2023/06/10 07:35:47;;;;;;;5.55;5.25;;;29.70;79.20;;;32.39;33.13;97612.69;5194181;28;20758;-67
2023/06/10 07:38:20;;;;;;;5.22;4.88;;;29.80;78.70;;;32.30;33.09;97620.00;5192262;28;20217;-66
2023/06/10 07:40:53;;;;;;;5.65;5.25;;;29.70;78.60;;;32.39;32.53;97617.97;5193043;28;20233;-67
2023/06/10 07:43:26;;;;;;;5.65;5.25;;;29.60;78.80;;;32.31;33.36;97611.19;5191063;28;20221;-67
2023/06/10 07:46:00;;;;;;;5.55;5.15;;;29.50;79.40;;;32.23;33.05;97613.22;5192665;28;20283;-66
2023/06/10 07:48:34;;;;;;;5.70;5.30;;;29.50;79.10;;;32.34;33.52;97614.63;5189968;28;20287;-67
2023/06/10 07:51:07;;;;;;;5.15;4.85;;;29.50;79.20;;;32.35;33.06;97613.72;5186868;28;20217;-67
2023/06/10 07:53:41;;;;;;;5.72;5.32;;;29.30;79.60;;;32.34;33.33;97614.63;5189567;28;20226;-68
2023/06/10 07:56:14;;;;;;;5.38;4.97;;;29.20;80.30;;;32.70;32.44;97618.66;5187064;28;20222;-67
2023/06/10 07:58:47;;;;;;;5.20;4.90;;;29.50;79.10;;;32.97;31.92;97616.81;5183140;28;20226;-68
2023/06/10 08:01:20;;;;;;;5.32;4.93;;;30.00;77.80;;;32.75;32.52;97614.06;5187113;28;20282;-68
2023/06/10 08:03:54;;;;;;;5.25;4.95;;;29.90;78.60;;;32.83;32.53;97612.94;5192411;28;20576;-67
2023/06/10 08:06:28;;;;;;;5.90;5.47;;;30.00;77.70;;;33.12;32.26;97607.44;5188786;28;20803;-66
2023/06/10 08:09:01;;;;;;;5.40;5.10;;;29.90;77.40;;;33.24;32.00;97615.84;5189335;28;20233;-66
2023/06/10 08:11:34;;;;;;;5.60;5.20;;;29.70;77.90;;;33.36;31.44;97602.13;5187627;28;20602;-67
2023/06/10 08:14:07;;;;;;;5.45;5.15;;;30.10;77.50;;;33.52;31.92;97603.31;5190563;28;20768;-66
2023/06/10 08:16:40;;;;;;;5.90;5.50;;;29.90;78.20;;;33.58;31.48;97608.34;5191533;28;20233;-68
2023/06/10 08:19:14;;;;;;;5.90;5.43;;;30.20;77.50;;;33.48;31.45;97609.63;5181122;28;20233;-68
2023/06/10 08:21:48;;;;;;;5.55;5.13;;;30.20;77.60;;;33.25;31.40;97610.47;5189364;28;21035;-66
2023/06/10 08:24:21;;;;;;;4.60;4.30;;;30.40;75.30;;;32.31;31.93;97613.81;5187462;28;20307;-68
2023/06/10 08:26:55;;;;;;;4.38;4.18;;;29.90;75.80;;;31.78;31.82;97605.84;5186698;28;20229;-66
2023/06/10 08:29:29;;;;;;;4.50;4.20;;;29.80;73.50;;;30.61;33.83;97597.81;5189443;28;20241;-66
2023/06/10 08:32:02;;;;;;;5.22;4.70;;;29.00;75.00;;;30.82;33.23;97596.41;5188893;28;20221;-65
2023/06/10 08:34:37;;;;;;;4.93;4.63;;;29.20;74.60;;;30.48;33.91;97602.56;5185987;28;20221;-66
2023/06/10 08:37:10;;;;;;;4.95;4.65;;;29.10;74.70;;;30.31;34.17;97588.97;5193294;28;20227;-66
2023/06/10 08:39:43;;;;;;;5.20;4.80;;;29.00;74.90;;;30.03;34.86;97592.25;5191474;28;20296;-67
2023/06/10 08:42:27;;;;;;;5.20;4.80;;;28.90;74.80;;;30.55;33.72;97589.22;5190033;28;20229;-66
2023/06/10 08:45:03;;;;;;;5.40;5.00;;;29.50;73.50;;;30.42;33.24;97592.19;5192202;28;20225;-66
2023/06/10 08:47:37;;;;;;;5.32;4.95;;;29.70;72.20;;;30.65;34.21;97593.34;5194660;28;20225;-66
2023/06/10 08:50:12;;;;;;;4.70;4.38;;;29.80;73.50;;;30.16;35.38;97589.31;5189924;28;20318;-66
2023/06/10 08:52:48;;;;;;;5.13;4.82;;;29.20;75.70;;;30.54;34.26;97596.25;5190577;28;20225;-66
2023/06/10 08:55:28;;;;;;;5.60;5.20;;;29.60;74.10;;;30.03;35.05;97597.53;5187651;28;20225;-68
2023/06/10 08:58:05;;;;;;;6.00;5.50;;;29.10;74.90;;;29.87;35.74;97596.19;5186697;28;20222;-67
2023/06/10 09:00:38;;;;;;;5.90;5.40;;;29.00;76.10;;;29.91;36.36;97594.34;5186515;28;20308;-67
2023/06/10 09:03:11;;;;;;;6.05;5.65;;;29.20;76.20;;;30.01;36.07;97587.94;5190384;28;20206;-66
2023/06/10 09:05:46;;;;;;;6.00;5.57;;;29.00;76.40;;;29.26;36.89;97590.53;5186243;28;20232;-66
2023/06/10 09:08:19;;;;;;;6.07;5.53;;;28.50;76.90;;;29.21;37.26;97588.91;5193002;28;20274;-67
2023/06/10 09:10:52;;;;;;;6.03;5.63;;;28.40;76.60;;;29.10;37.19;97597.91;5193442;28;20287;-67
2023/06/10 09:13:26;;;;;;;5.75;5.35;;;28.30;77.30;;;29.24;37.01;97594.97;5194808;28;20697;-67
2023/06/10 09:16:00;;;;;;;5.90;5.50;;;28.30;76.90;;;29.36;36.73;97593.81;5196567;28;20252;-67
2023/06/10 09:18:34;;;;;;;5.68;5.28;;;28.50;76.30;;;29.71;36.50;97597.47;5195965;28;20225;-67
2023/06/10 09:21:08;;;;;;;5.63;5.22;;;29.00;76.50;;;30.03;36.50;97583.50;5191899;28;20225;-67
2023/06/10 09:23:43;;;;;;;6.30;5.90;;;29.60;75.30;;;29.85;35.83;97580.41;5194590;28;20278;-66
2023/06/10 09:26:17;;;;;;;5.78;5.40;;;29.40;74.70;;;29.20;37.05;97588.03;5195473;28;20648;-66
2023/06/10 09:28:50;;;;;;;6.10;5.70;;;28.60;75.80;;;29.62;35.47;97598.53;5187644;28;20238;-65
2023/06/10 09:31:23;;;;;;;6.75;6.25;;;28.90;74.70;;;28.70;36.69;97585.53;5187889;28;20268;-66
2023/06/10 09:34:07;;;;;;;6.15;5.75;;;28.10;75.90;;;28.86;37.27;97586.09;5189348;28;20232;-66
2023/06/10 09:36:42;;;;;;;6.07;5.68;;;28.30;76.70;;;28.67;37.66;97590.88;5187622;28;20694;-66
2023/06/10 09:39:17;;;;;;;5.68;5.28;;;28.20;76.90;;;28.30;38.41;97586.25;5184320;28;20222;-66
2023/06/10 09:41:51;;;;;;;6.20;5.70;;;28.00;76.60;;;28.58;37.85;97579.63;5189872;28;20599;-66
2023/06/10 09:44:25;;;;;;;6.30;5.80;;;28.00;77.50;;;28.67;38.91;97587.34;5182981;28;20287;-66
2023/06/10 09:46:59;;;;;;;6.30;5.80;;;28.10;79.00;;;29.27;37.27;97587.00;5185022;28;20229;-66
2023/06/10 09:49:32;;;;;;;5.30;4.97;;;28.80;77.40;;;29.55;36.34;97595.16;5194141;28;20230;-65
2023/06/10 09:52:07;;;;;;;4.82;4.43;;;29.00;74.90;;;29.37;35.36;97583.25;5182510;28;20276;-65
2023/06/10 09:54:40;;;;;;;5.63;5.22;;;28.80;73.60;;;29.50;35.73;97599.63;5183029;28;20237;-67
2023/06/10 09:57:14;;;;;;;5.18;4.75;;;28.90;74.50;;;29.31;34.74;97599.22;5187347;28;20249;-65
2023/06/10 09:59:47;;;;;;;5.30;5.00;;;28.60;73.10;;;29.31;35.80;97583.41;5183797;28;20225;-66
2023/06/10 10:02:21;;;;;;;5.30;4.93;;;28.50;73.70;;;29.52;36.46;97587.31;5184869;28;20769;-67
2023/06/10 10:04:54;;;;;;;5.30;4.90;;;28.80;74.80;;;29.02;35.11;97577.88;5186916;28;20229;-65
2023/06/10 10:07:28;;;;;;;5.00;4.70;;;28.40;72.90;;;28.68;36.91;97576.81;5186240;28;20663;-66
2023/06/10 10:10:02;;;;;;;5.95;5.55;;;27.90;75.30;;;29.20;36.45;97582.78;5186923;28;20236;-65
2023/06/10 10:12:38;;;;;;;5.35;4.95;;;28.40;75.60;;;29.18;36.43;97588.06;5185850;28;20221;-66
2023/06/10 10:15:13;;;;;;;5.95;5.55;;;28.70;74.90;;;29.58;36.03;97575.75;5188363;28;20316;-66
2023/06/10 10:17:51;;;;;;;5.40;5.10;;;28.90;74.00;;;29.04;36.71;97584.00;5189596;28;20290;-67
2023/06/10 10:20:30;;;;;;;5.40;5.10;;;28.50;74.50;;;28.59;36.54;97581.34;5189487;28;20229;-66
2023/06/10 10:23:07;;;;;;;5.72;5.32;;;27.90;74.80;;;28.66;37.69;97580.34;5193551;28;20701;-65
2023/06/10 10:25:42;;;;;;;5.60;5.20;;;27.70;77.00;;;28.87;37.42;97572.03;5190805;28;20225;-65
2023/06/10 10:28:18;;;;;;;5.57;5.15;;;27.90;77.00;;;29.00;37.69;97574.41;5192459;28;20231;-65
2023/06/10 10:30:55;;;;;;;6.30;5.80;;;28.10;77.00;;;28.94;38.07;97578.03;5195199;28;20221;-65
2023/06/10 10:33:39;;;;;;;5.75;5.30;;;28.10;77.40;;;28.31;38.41;97573.97;5188125;28;20229;-66
2023/06/10 10:36:14;;;;;;;6.15;5.65;;;27.60;78.20;;;28.12;38.88;97564.69;5190548;28;20224;-68
2023/06/10 10:38:49;;;;;;;5.70;5.32;;;27.30;79.50;;;28.27;39.17;97570.53;5195056;28;20775;-67
2023/06/10 10:41:27;;;;;;;6.13;5.70;;;27.30;78.80;;;28.18;38.45;97565.44;5195107;28;20224;-66
2023/06/10 10:44:01;;;;;;;5.75;5.35;;;27.40;78.40;;;28.30;37.61;97557.34;5192945;28;20312;-65